createdAt,value
2019-04-25T00:01:59.448Z,31.40
2019-04-25T00:04:28.432Z,31.50
2019-04-25T00:06:56.974Z,31.50
2019-04-25T00:09:27.330Z,30.90
2019-04-25T00:11:55.808Z,31.50
2019-04-25T00:14:25.876Z,31.40
2019-04-25T00:16:54.336Z,31.50
2019-04-25T00:19:22.790Z,31.00
2019-04-25T00:22:02.437Z,31.60
2019-04-25T00:24:42.948Z,31.80
2019-04-25T00:27:11.802Z,31.80
2019-04-25T00:29:41.834Z,31.30
2019-04-25T00:32:11.735Z,31.90
2019-04-25T00:34:43.208Z,31.90
2019-04-25T00:37:12.269Z,32.00
2019-04-25T00:39:41.329Z,31.50
2019-04-25T00:42:12.234Z,32.10
2019-04-25T00:44:43.445Z,32.10
2019-04-25T00:47:11.741Z,32.10
2019-04-25T00:49:42.153Z,31.70
2019-04-25T00:52:11.574Z,32.40
2019-04-25T00:54:41.448Z,32.70
2019-04-25T00:57:12.092Z,32.70
2019-04-25T00:59:45.553Z,32.00
2019-04-25T01:02:15.905Z,32.60
2019-04-25T01:04:45.165Z,32.30
2019-04-25T01:07:13.933Z,32.90
2019-04-25T01:09:42.504Z,32.30
2019-04-25T01:12:11.569Z,33.00
2019-04-25T01:14:41.889Z,33.00
2019-04-25T01:17:11.677Z,32.90
2019-04-25T01:19:40.378Z,32.40
2019-04-25T01:22:09.247Z,33.00
2019-04-25T01:24:37.693Z,32.90
2019-04-25T01:27:07.288Z,33.00
2019-04-25T01:29:35.812Z,32.40
2019-04-25T01:32:06.388Z,33.00
2019-04-25T01:34:39.361Z,33.00
2019-04-25T01:37:15.291Z,33.00
2019-04-25T01:39:51.155Z,32.40
2019-04-25T01:42:39.937Z,33.00
2019-04-25T01:45:08.989Z,33.00
2019-04-25T01:47:37.435Z,33.00
2019-04-25T01:50:08.137Z,32.60
2019-04-25T01:52:36.742Z,33.20
2019-04-25T01:55:07.506Z,33.10
2019-04-25T01:57:36.182Z,33.10
2019-04-25T02:00:07.313Z,32.60
2019-04-25T02:02:45.301Z,33.10
2019-04-25T02:05:15.481Z,33.00
2019-04-25T02:07:44.426Z,33.00
2019-04-25T02:10:13.495Z,32.60
2019-04-25T02:12:43.788Z,33.10
2019-04-25T02:15:14.080Z,33.10
2019-04-25T02:17:43.977Z,33.10
2019-04-25T02:20:14.231Z,32.60
2019-04-25T02:22:44.180Z,33.10
2019-04-25T02:25:13.252Z,33.00
2019-04-25T02:27:41.953Z,33.00
2019-04-25T02:30:12.135Z,32.50
2019-04-25T02:32:40.812Z,33.00
2019-04-25T02:35:10.019Z,33.00
2019-04-25T02:37:38.668Z,32.90
2019-04-25T02:40:08.830Z,32.50
2019-04-25T02:42:37.663Z,33.10
2019-04-25T02:45:27.354Z,33.00
2019-04-25T02:48:07.199Z,33.00
2019-04-25T02:50:43.943Z,32.60
2019-04-25T02:53:37.147Z,33.50
2019-04-25T02:56:13.194Z,32.80
2019-04-25T02:58:35.016Z,33.10
2019-04-25T03:01:16.239Z,32.80
2019-04-25T03:03:35.304Z,33.20
2019-04-25T03:06:07.491Z,33.30
2019-04-25T03:08:35.473Z,33.30
2019-04-25T03:11:06.362Z,33.00
2019-04-25T03:13:34.765Z,33.30
2019-04-25T03:16:07.646Z,33.60
2019-04-25T03:18:35.703Z,33.40
2019-04-25T03:21:14.275Z,33.30
2019-04-25T03:23:42.670Z,33.50
2019-04-25T03:26:13.541Z,34.10
2019-04-25T03:28:43.684Z,33.60
2019-04-25T03:31:18.706Z,33.30
2019-04-25T03:33:45.993Z,33.60
2019-04-25T03:36:14.258Z,33.70
2019-04-25T03:38:44.178Z,33.70
2019-04-25T03:41:14.623Z,33.60
2019-04-25T03:43:44.217Z,34.00
2019-04-25T03:46:14.262Z,33.90
2019-04-25T03:48:44.098Z,34.00
2019-04-25T03:51:16.293Z,33.80
2019-04-25T03:53:44.795Z,34.10
2019-04-25T03:56:14.608Z,34.10
2019-04-25T03:58:43.967Z,34.20
2019-04-25T04:01:14.978Z,33.80
2019-04-25T04:03:43.961Z,34.60
2019-04-25T04:06:14.223Z,34.20
2019-04-25T04:08:44.315Z,34.30
2019-04-25T04:11:33.742Z,33.90
2019-04-25T04:14:03.887Z,33.70
2019-04-25T04:16:34.342Z,34.00
2019-04-25T04:19:04.907Z,33.50
2019-04-25T04:21:40.645Z,34.00
2019-04-25T04:24:11.695Z,34.00
2019-04-25T04:26:40.283Z,34.00
2019-04-25T04:29:08.727Z,33.40
2019-04-25T04:31:37.208Z,34.00
2019-04-25T04:34:06.334Z,34.00
2019-04-25T04:36:35.599Z,34.00
2019-04-25T04:39:05.789Z,33.60
2019-04-25T04:41:34.246Z,34.10
2019-04-25T04:44:04.104Z,34.10
2019-04-25T04:46:34.067Z,34.10
2019-04-25T04:49:03.902Z,33.60
2019-04-25T04:51:33.571Z,34.00
2019-04-25T04:54:03.449Z,34.00
2019-04-25T04:56:31.953Z,34.00
2019-04-25T04:59:00.405Z,34.10
2019-04-25T05:01:30.510Z,34.00
2019-04-25T05:04:03.981Z,34.10
2019-04-25T05:06:43.711Z,34.10
2019-04-25T05:09:15.258Z,33.60
2019-04-25T05:11:44.220Z,33.80
2019-04-25T05:14:14.732Z,34.10
2019-04-25T05:16:43.258Z,34.10
2019-04-25T05:19:12.804Z,33.60
2019-04-25T05:21:43.534Z,34.10
2019-04-25T05:24:13.453Z,34.00
2019-04-25T05:26:43.979Z,34.00
2019-04-25T05:29:13.949Z,33.50
2019-04-25T05:31:45.626Z,34.00
2019-04-25T05:34:15.710Z,34.00
2019-04-25T05:36:44.366Z,34.10
2019-04-25T05:39:16.323Z,33.60
2019-04-25T05:42:04.309Z,34.00
2019-04-25T05:44:34.335Z,34.00
2019-04-25T05:47:04.165Z,34.00
2019-04-25T05:49:34.215Z,33.60
2019-04-25T05:52:04.042Z,34.10
2019-04-25T05:54:34.403Z,34.20
2019-04-25T05:57:03.732Z,34.20
2019-04-25T05:59:33.745Z,33.70
2019-04-25T06:02:03.881Z,34.10
2019-04-25T06:04:33.578Z,34.10
2019-04-25T06:07:02.212Z,34.20
2019-04-25T06:09:38.134Z,33.60
2019-04-25T06:12:24.762Z,34.40
2019-04-25T06:14:54.611Z,33.80
2019-04-25T06:17:30.553Z,33.90
2019-04-25T06:20:03.704Z,33.50
2019-04-25T06:22:50.756Z,33.90
2019-04-25T06:25:22.985Z,33.80
2019-04-25T06:27:57.281Z,33.70
2019-04-25T06:30:25.671Z,33.20
2019-04-25T06:32:54.396Z,33.50
2019-04-25T06:35:24.746Z,33.50
2019-04-25T06:37:53.707Z,33.10
2019-04-25T06:40:24.196Z,33.10
2019-04-25T06:42:53.612Z,33.40
2019-04-25T06:45:38.189Z,33.30
2019-04-25T06:48:25.030Z,33.30
2019-04-25T06:50:53.809Z,32.80
2019-04-25T06:53:23.092Z,33.20
2019-04-25T06:55:53.611Z,33.00
2019-04-25T06:58:23.274Z,32.90
2019-04-25T07:00:58.747Z,32.50
2019-04-25T07:03:23.339Z,32.80
2019-04-25T07:05:53.571Z,32.80
2019-04-25T07:08:23.753Z,32.80
2019-04-25T07:10:53.973Z,32.30
2019-04-25T07:13:24.672Z,32.50
2019-04-25T07:15:53.421Z,32.10
2019-04-25T07:18:23.550Z,31.90
2019-04-25T07:20:53.354Z,31.50
2019-04-25T07:23:23.536Z,31.80
2019-04-25T07:25:54.066Z,31.50
2019-04-25T07:28:40.524Z,31.20
2019-04-25T07:31:11.350Z,30.70
2019-04-25T07:33:41.481Z,31.00
2019-04-25T07:36:09.945Z,30.70
2019-04-25T07:38:38.435Z,30.80
2019-04-25T07:41:06.869Z,30.40
2019-04-25T07:43:36.299Z,30.70
2019-04-25T07:46:05.074Z,30.50
2019-04-25T07:48:36.279Z,30.40
2019-04-25T07:51:03.782Z,29.80
2019-04-25T07:53:33.943Z,30.00
2019-04-25T07:56:04.146Z,29.90
2019-04-25T07:58:49.171Z,29.60
2019-04-25T08:01:13.965Z,29.10
2019-04-25T08:03:43.864Z,29.20
2019-04-25T08:06:13.801Z,29.00
2019-04-25T08:08:43.651Z,28.80
2019-04-25T08:11:14.084Z,28.50
2019-04-25T08:13:50.462Z,28.90
2019-04-25T08:16:26.633Z,28.70
2019-04-25T08:18:56.034Z,28.80
2019-04-25T08:21:24.954Z,28.70
2019-04-25T08:23:54.624Z,28.50
2019-04-25T08:26:24.010Z,28.40
2019-04-25T08:28:57.489Z,28.40
2019-04-25T08:31:23.467Z,28.40
2019-04-25T08:33:53.571Z,28.20
2019-04-25T08:36:23.359Z,28.00
2019-04-25T08:38:53.481Z,27.20
2019-04-25T08:41:23.813Z,27.50
2019-04-25T08:43:54.308Z,27.40
2019-04-25T08:46:23.782Z,27.10
2019-04-25T08:49:06.126Z,27.10
2019-04-25T08:51:44.531Z,26.30
2019-04-25T08:54:31.977Z,26.30
2019-04-25T08:59:52.238Z,26.30
2019-04-25T09:02:17.779Z,25.50
2019-04-25T09:05:04.265Z,25.20
2019-04-25T09:07:35.352Z,24.80
2019-04-25T09:10:03.601Z,24.80
2019-04-25T09:12:32.819Z,24.90
2019-04-25T09:15:04.067Z,24.80
2019-04-25T09:17:33.194Z,24.50
2019-04-25T09:20:04.027Z,24.50
2019-04-25T09:22:35.043Z,23.90
2019-04-25T09:25:03.809Z,23.80
2019-04-25T09:27:34.309Z,23.90
2019-04-25T09:30:03.927Z,23.90
2019-04-25T09:32:33.790Z,23.70
2019-04-25T09:35:03.749Z,23.30
2019-04-25T09:37:33.584Z,23.40
2019-04-25T09:40:10.394Z,23.30
2019-04-25T09:42:39.631Z,22.90
2019-04-25T09:45:29.019Z,22.60
2019-04-25T09:48:03.132Z,22.70
2019-04-25T09:50:38.223Z,22.80
2019-04-25T09:53:06.741Z,22.70
2019-04-25T09:55:44.089Z,22.70
2019-04-25T09:58:16.926Z,22.70
2019-04-25T10:00:47.655Z,22.50
2019-04-25T10:03:16.375Z,22.70
2019-04-25T10:05:44.903Z,22.70
2019-04-25T10:08:13.525Z,22.90
2019-04-25T10:10:42.497Z,22.90
2019-04-25T10:13:11.155Z,22.70
2019-04-25T10:15:52.355Z,22.80
2019-04-25T10:18:21.419Z,22.80
2019-04-25T10:20:50.581Z,22.80
2019-04-25T10:23:19.338Z,22.90
2019-04-25T10:25:48.625Z,23.00
2019-04-25T10:28:17.450Z,23.10
2019-04-25T10:30:46.868Z,23.10
2019-04-25T10:33:16.708Z,23.10
2019-04-25T10:35:50.656Z,22.90
2019-04-25T10:38:15.413Z,23.20
2019-04-25T10:40:46.253Z,23.30
2019-04-25T10:43:15.754Z,23.20
2019-04-25T10:45:46.355Z,23.20
2019-04-25T10:48:15.336Z,23.10
2019-04-25T10:50:45.484Z,23.00
2019-04-25T10:53:14.275Z,23.20
2019-04-25T10:55:43.097Z,23.00
2019-04-25T10:58:11.628Z,23.00
2019-04-25T11:00:42.283Z,22.90
2019-04-25T11:03:26.493Z,22.80
2019-04-25T11:05:55.914Z,22.60
2019-04-25T11:08:24.738Z,22.80
2019-04-25T11:10:54.901Z,22.60
2019-04-25T11:13:23.542Z,22.80
2019-04-25T11:15:52.244Z,22.80
2019-04-25T11:18:20.782Z,22.70
2019-04-25T11:20:50.294Z,22.40
2019-04-25T11:23:19.050Z,22.30
2019-04-25T11:25:47.641Z,22.30
2019-04-25T11:28:16.452Z,22.30
2019-04-25T11:30:47.302Z,22.30
2019-04-25T11:33:16.483Z,22.20
2019-04-25T11:35:47.497Z,22.30
2019-04-25T11:38:23.755Z,22.50
2019-04-25T11:41:14.018Z,22.40
2019-04-25T11:43:45.351Z,22.50
2019-04-25T11:46:14.093Z,22.50
2019-04-25T11:48:44.222Z,22.10
2019-04-25T11:51:13.878Z,22.10
2019-04-25T11:53:45.040Z,22.50
2019-04-25T11:56:13.744Z,22.50
2019-04-25T11:58:45.046Z,22.50
2019-04-25T12:01:13.816Z,22.40
2019-04-25T12:03:45.078Z,22.40
2019-04-25T12:06:14.078Z,22.30
2019-04-25T12:08:44.080Z,22.30
2019-04-25T12:11:13.854Z,22.30
2019-04-25T12:13:45.519Z,22.20
2019-04-25T12:16:14.392Z,22.20
2019-04-25T12:18:44.765Z,21.90
2019-04-25T12:21:13.592Z,21.90
2019-04-25T12:23:42.177Z,21.70
2019-04-25T12:26:10.643Z,21.80
2019-04-25T12:28:39.076Z,21.80
2019-04-25T12:31:07.540Z,21.80
2019-04-25T12:33:36.058Z,21.80
2019-04-25T12:36:04.585Z,21.90
2019-04-25T12:38:35.117Z,21.80
2019-04-25T12:41:04.106Z,21.50
2019-04-25T12:43:34.384Z,21.70
2019-04-25T12:46:06.919Z,21.70
2019-04-25T12:48:35.434Z,21.70
2019-04-25T12:51:04.637Z,21.70
2019-04-25T12:53:33.420Z,21.90
2019-04-25T12:56:04.389Z,21.90
2019-04-25T12:58:33.409Z,21.90
2019-04-25T13:01:02.122Z,21.80
2019-04-25T13:03:30.582Z,21.80
2019-04-25T13:05:59.121Z,21.70
2019-04-25T13:08:27.573Z,21.60
2019-04-25T13:11:07.472Z,21.50
2019-04-25T13:13:26.215Z,21.60
2019-04-25T13:15:54.679Z,21.60
2019-04-25T13:18:23.221Z,21.60
2019-04-25T13:20:51.731Z,21.30
2019-04-25T13:23:20.551Z,21.40
2019-04-25T13:25:49.693Z,21.30
2019-04-25T13:28:25.517Z,21.40
2019-04-25T13:31:06.662Z,21.30
2019-04-25T13:33:43.312Z,21.30
2019-04-25T13:36:15.947Z,21.00
2019-04-25T13:38:45.280Z,21.00
2019-04-25T13:41:13.902Z,21.20
2019-04-25T13:43:42.418Z,21.20
2019-04-25T13:46:13.868Z,21.30
2019-04-25T13:48:42.916Z,21.20
2019-04-25T13:51:11.806Z,21.30
2019-04-25T13:53:40.323Z,21.20
2019-04-25T13:56:09.163Z,21.20
2019-04-25T13:58:37.683Z,21.00
2019-04-25T14:01:13.242Z,21.00
2019-04-25T14:03:38.300Z,20.80
2019-04-25T14:06:07.500Z,20.90
2019-04-25T14:08:35.956Z,21.00
2019-04-25T14:11:05.234Z,20.70
2019-04-25T14:13:34.043Z,20.90
2019-04-25T14:16:06.859Z,21.10
2019-04-25T14:18:49.185Z,21.20
2019-04-25T14:21:19.379Z,20.90
2019-04-25T14:23:48.085Z,21.20
2019-04-25T14:26:16.626Z,20.90
2019-04-25T14:28:45.143Z,20.90
2019-04-25T14:31:30.444Z,20.50
2019-04-25T14:33:45.637Z,20.30
2019-04-25T14:36:14.256Z,19.90
2019-04-25T14:38:42.764Z,20.10
2019-04-25T14:41:11.960Z,19.80
2019-04-25T14:43:40.458Z,19.90
2019-04-25T14:46:08.900Z,19.80
2019-04-25T14:48:37.395Z,19.80
2019-04-25T14:51:06.177Z,19.70
2019-04-25T14:53:35.213Z,20.20
2019-04-25T14:56:15.308Z,20.00
2019-04-25T14:58:45.543Z,20.10
2019-04-25T15:01:15.950Z,19.90
2019-04-25T15:03:44.528Z,20.00
2019-04-25T15:06:13.069Z,20.00
2019-04-25T15:08:41.599Z,19.90
2019-04-25T15:11:10.200Z,20.00
2019-04-25T15:13:38.640Z,20.10
2019-04-25T15:16:07.268Z,20.20
2019-04-25T15:18:46.048Z,20.20
2019-04-25T15:21:06.510Z,20.40
2019-04-25T15:23:37.717Z,20.40
2019-04-25T15:26:06.196Z,20.50
2019-04-25T15:28:34.718Z,20.50
2019-04-25T15:31:03.340Z,20.60
2019-04-25T15:33:31.805Z,20.70
2019-04-25T15:36:14.020Z,20.60
2019-04-25T15:38:46.844Z,20.60
2019-04-25T15:41:16.942Z,20.50
2019-04-25T15:43:47.050Z,20.20
2019-04-25T15:46:17.572Z,20.60
2019-04-25T15:48:46.452Z,20.60
2019-04-25T15:51:14.882Z,20.60
2019-04-25T15:53:43.418Z,20.60
2019-04-25T15:56:12.033Z,20.40
2019-04-25T15:58:41.593Z,20.30
2019-04-25T16:01:10.859Z,20.10
2019-04-25T16:03:39.328Z,19.80
2019-04-25T16:06:07.774Z,20.30
2019-04-25T16:08:36.316Z,20.00
2019-04-25T16:11:05.336Z,19.90
2019-04-25T16:13:34.452Z,19.60
2019-04-25T16:16:02.960Z,19.60
2019-04-25T16:18:31.520Z,19.70
2019-04-25T16:21:00.045Z,19.70
2019-04-25T16:23:29.011Z,19.60
2019-04-25T16:25:57.975Z,19.60
2019-04-25T16:28:26.554Z,19.80
2019-04-25T16:30:58.660Z,19.70
2019-04-25T16:33:27.122Z,20.10
2019-04-25T16:35:55.820Z,20.20
2019-04-25T16:38:24.622Z,20.10
2019-04-25T16:40:54.602Z,20.00
2019-04-25T16:43:24.778Z,19.70
2019-04-25T16:45:53.289Z,19.40
2019-04-25T16:48:22.084Z,19.30
2019-04-25T16:50:50.532Z,19.40
2019-04-25T16:53:19.081Z,19.20
2019-04-25T16:55:47.587Z,18.90
2019-04-25T16:58:16.128Z,18.80
2019-04-25T17:00:46.216Z,18.50
2019-04-25T17:03:15.497Z,18.40
2019-04-25T17:05:44.009Z,18.30
2019-04-25T17:08:12.865Z,18.10
2019-04-25T17:10:41.658Z,18.00
2019-04-25T17:13:10.412Z,18.00
2019-04-25T17:15:55.939Z,18.00
2019-04-25T17:18:29.727Z,18.10
2019-04-25T17:21:00.834Z,18.20
2019-04-25T17:23:30.075Z,18.20
2019-04-25T17:25:59.563Z,18.30
2019-04-25T17:28:30.352Z,18.50
2019-04-25T17:31:01.545Z,18.60
2019-04-25T17:33:37.769Z,18.80
2019-04-25T17:36:10.581Z,18.90
2019-04-25T17:38:43.763Z,19.00
2019-04-25T17:41:12.219Z,19.20
2019-04-25T17:43:40.668Z,19.30
2019-04-25T17:46:11.084Z,19.50
2019-04-25T17:48:40.422Z,19.60
2019-04-25T17:51:09.046Z,19.70
2019-04-25T17:53:37.475Z,19.90
2019-04-25T17:56:06.057Z,20.00
2019-04-25T17:58:34.708Z,20.10
2019-04-25T18:01:03.346Z,20.00
2019-04-25T18:03:33.586Z,20.40
2019-04-25T18:06:02.151Z,20.60
2019-04-25T18:08:30.597Z,20.70
2019-04-25T18:10:59.041Z,20.50
2019-04-25T18:13:27.586Z,20.90
2019-04-25T18:16:03.847Z,21.10
2019-04-25T18:18:43.511Z,21.30
2019-04-25T18:21:12.120Z,21.00
2019-04-25T18:23:58.253Z,21.40
2019-04-25T18:26:30.931Z,21.80
2019-04-25T18:29:01.038Z,21.40
2019-04-25T18:31:29.603Z,21.80
2019-04-25T18:33:59.688Z,21.90
2019-04-25T18:36:29.811Z,22.00
2019-04-25T18:39:02.798Z,21.70
2019-04-25T18:41:48.061Z,22.10
2019-04-25T18:44:16.507Z,22.10
2019-04-25T18:46:47.220Z,21.80
2019-04-25T18:49:15.938Z,22.30
2019-04-25T18:51:54.960Z,21.90
2019-04-25T18:54:17.094Z,22.00
2019-04-25T18:56:53.412Z,22.40
2019-04-25T18:59:26.397Z,21.80
2019-04-25T19:02:02.218Z,22.40
2019-04-25T19:04:34.989Z,22.50
2019-04-25T19:07:03.614Z,22.00
2019-04-25T19:12:00.265Z,22.20
2019-04-25T19:14:28.782Z,22.30
2019-04-25T19:16:57.227Z,22.60
2019-04-25T19:19:25.711Z,22.70
2019-04-25T19:21:54.164Z,22.70
2019-04-25T19:24:22.789Z,22.80
2019-04-25T19:26:52.213Z,23.10
2019-04-25T19:29:20.871Z,23.40
2019-04-25T19:31:51.902Z,23.30
2019-04-25T19:34:19.500Z,23.30
2019-04-25T19:36:49.003Z,23.70
2019-04-25T19:39:19.242Z,23.20
2019-04-25T19:41:52.130Z,23.60
2019-04-25T19:44:22.321Z,23.90
2019-04-25T19:46:51.454Z,23.90
2019-04-25T19:49:19.894Z,24.10
2019-04-25T19:51:49.383Z,24.00
2019-04-25T19:54:17.893Z,23.80
2019-04-25T19:56:47.293Z,24.10
2019-04-25T19:59:16.108Z,24.30
2019-04-25T20:01:44.574Z,24.70
2019-04-25T20:04:15.350Z,24.70
2019-04-25T20:07:02.280Z,24.90
2019-04-25T20:09:49.032Z,24.50
2019-04-25T20:12:17.826Z,25.20
2019-04-25T20:14:47.101Z,25.40
2019-04-25T20:17:15.732Z,25.60
2019-04-25T20:19:44.911Z,24.90
2019-04-25T20:22:14.301Z,25.60
2019-04-25T20:24:43.729Z,25.20
2019-04-25T20:27:12.961Z,25.30
2019-04-25T20:29:41.457Z,25.40
2019-04-25T20:32:09.921Z,26.10
2019-04-25T20:34:38.398Z,25.90
2019-04-25T20:37:06.865Z,26.10
2019-04-25T20:39:35.525Z,25.30
2019-04-25T20:42:04.059Z,25.70
2019-04-25T20:44:32.599Z,25.80
2019-04-25T20:47:01.087Z,26.10
2019-04-25T20:49:29.557Z,26.00
2019-04-25T20:51:58.068Z,25.70
2019-04-25T20:54:26.533Z,25.80
2019-04-25T20:56:55.169Z,26.10
2019-04-25T20:59:23.825Z,25.90
2019-04-25T21:01:53.550Z,25.70
2019-04-25T21:04:41.812Z,26.50
2019-04-25T21:07:11.005Z,26.20
2019-04-25T21:09:39.600Z,25.70
2019-04-25T21:12:08.957Z,26.60
2019-04-25T21:14:49.213Z,26.00
2019-04-25T21:17:19.555Z,26.30
2019-04-25T21:19:52.802Z,25.80
2019-04-25T21:22:21.364Z,25.80
2019-04-25T21:24:50.541Z,26.40
2019-04-25T21:27:20.149Z,26.40
2019-04-25T21:29:48.861Z,25.90
2019-04-25T21:32:19.033Z,26.40
2019-04-25T21:34:47.498Z,26.60
2019-04-25T21:37:16.322Z,26.50
2019-04-25T21:39:54.540Z,26.00
2019-04-25T21:42:33.374Z,26.60
2019-04-25T21:45:02.708Z,26.60
2019-04-25T21:47:31.365Z,26.70
2019-04-25T21:50:00.684Z,26.20
2019-04-25T21:52:29.637Z,26.60
2019-04-25T21:54:58.600Z,27.00
2019-04-25T21:57:28.150Z,27.10
2019-04-25T22:00:03.395Z,26.50
2019-04-25T22:02:27.687Z,27.10
2019-04-25T22:04:56.705Z,27.10
2019-04-25T22:07:25.640Z,27.20
2019-04-25T22:09:55.598Z,26.60
2019-04-25T22:12:24.772Z,27.20
2019-04-25T22:14:53.234Z,27.40
2019-04-25T22:17:21.707Z,27.40
2019-04-25T22:19:50.614Z,26.80
2019-04-25T22:22:22.094Z,27.40
2019-04-25T22:24:49.590Z,27.60
2019-04-25T22:27:19.716Z,27.50
2019-04-25T22:29:49.819Z,26.90
2019-04-25T22:32:19.975Z,27.50
2019-04-25T22:34:52.553Z,27.60
2019-04-25T22:37:20.629Z,27.60
2019-04-25T22:39:49.278Z,27.00
2019-04-25T22:42:17.798Z,27.70
2019-04-25T22:44:46.271Z,27.70
2019-04-25T22:47:17.395Z,27.70
2019-04-25T22:49:44.881Z,27.20
2019-04-25T22:52:13.629Z,27.70
2019-04-25T22:54:42.243Z,27.80
2019-04-25T22:57:10.880Z,27.80
2019-04-25T23:02:18.520Z,27.60
2019-04-25T23:05:09.085Z,27.50
2019-04-25T23:07:31.759Z,27.90
2019-04-25T23:10:00.579Z,27.50
2019-04-25T23:12:30.431Z,27.40
2019-04-25T23:14:58.947Z,27.80
2019-04-25T23:17:27.467Z,27.90
2019-04-25T23:19:56.211Z,27.40
2019-04-25T23:22:24.695Z,27.60
2019-04-25T23:25:00.861Z,27.60
2019-04-25T23:27:33.658Z,27.90
2019-04-25T23:30:02.098Z,27.50
2019-04-25T23:32:30.847Z,27.40
2019-04-25T23:34:59.341Z,27.70
2019-04-25T23:37:27.879Z,28.10
2019-04-25T23:39:56.314Z,27.50
2019-04-25T23:42:24.773Z,27.40
2019-04-25T23:44:53.394Z,28.00
2019-04-25T23:47:21.859Z,27.50
2019-04-25T23:49:50.377Z,27.50
2019-04-25T23:52:19.199Z,28.10
2019-04-25T23:54:47.656Z,28.00
2019-04-25T23:57:17.551Z,28.20
2019-04-25T23:59:46.421Z,27.50
